Zavodoukovsk, Russia
Current Conditions -  °F | °C
As of 6:00 PM on Wednesday 26 Nov 2014 (Local Time) from USTR Reporting Station
Blowing Snow Blowing Snow  
Wind Chill: 10°   Ceiling: 1600
Heat Index: 23°   Visibility: 1.1mi
Dew Point: 19°   Wind: 16mph
Humidity: 86%   Direction: 290°WNW
Pressure: 29.71"   Gusts: 22mph
Location:  56.51°N, 66.54°E
Report Text: USTR 261300Z 29007G10MPS 1800 -SHSN BLSN BKN016CB OVC043M05/M07 Q1006 TEMPO 27015MPS 0800 +SHSN BLSN VV003 RMK QFE745/099321450355 30450550
Loading
Personal Weather Stations






























Interactive Weather Map New forecast layout! Learn more

10-Day Weather Forecast

Advertisements
Track Severe Weather on mobile